Khulna, Bangladesh
Current Conditions -  °F | °C
As of 1:50 AM on Thursday 18 Dec 2014 (Local Time) from VGHS Reporting Station
Haze Haze  
Wind Chill: 59°   Ceiling: Unl
Heat Index: 59°   Visibility: 1.5mi
Dew Point: 55°   Wind: 7mph
Humidity: 88%   Direction: 300°WNW
Pressure: 30"   Gusts: NA
Location:  23.37°N, 89.5°E
Report Text: VGHS 171950Z 30006KT 2500 BR NSC 15/13 Q1016 TEMPO S/VIS 2000M
Loading
Personal Weather Stations






























Interactive Weather Map New forecast layout! Learn more

10-Day Weather Forecast

Advertisements
Track Severe Weather on mobile